createdAt,value
2018-08-13T00:01:19.547Z,21.95
2018-08-13T00:03:49.768Z,21.84
2018-08-13T00:06:19.990Z,21.83
2018-08-13T00:08:50.079Z,21.91
2018-08-13T00:11:20.347Z,21.89
2018-08-13T00:13:50.378Z,21.81
2018-08-13T00:16:19.311Z,21.75
2018-08-13T00:18:49.408Z,21.64
2018-08-13T00:21:18.015Z,21.59
2018-08-13T00:23:47.379Z,21.56
2018-08-13T00:26:16.742Z,21.57
2018-08-13T00:28:45.441Z,21.55
2018-08-13T00:31:14.191Z,21.41
2018-08-13T00:33:42.923Z,21.38
2018-08-13T00:36:12.633Z,21.38
2018-08-13T00:38:41.940Z,21.41
2018-08-13T00:41:11.866Z,21.35
2018-08-13T00:43:41.406Z,21.31
2018-08-13T00:46:10.975Z,21.28
2018-08-13T00:48:41.250Z,21.28
2018-08-13T00:51:09.894Z,21.33
2018-08-13T00:53:39.890Z,21.24
2018-08-13T00:56:09.410Z,21.14
2018-08-13T00:58:38.438Z,21.16
2018-08-13T01:01:08.547Z,21.11
2018-08-13T01:03:37.969Z,21.05
2018-08-13T01:06:07.011Z,21.05
2018-08-13T01:08:35.710Z,20.96
2018-08-13T01:11:05.122Z,20.92
2018-08-13T01:13:36.390Z,20.98
2018-08-13T01:16:05.719Z,20.97
2018-08-13T01:18:34.356Z,20.85
2018-08-13T01:21:03.168Z,20.81
2018-08-13T01:23:33.308Z,20.67
2018-08-13T01:26:01.956Z,20.72
2018-08-13T01:28:30.879Z,20.77
2018-08-13T01:31:01.520Z,20.66
2018-08-13T01:33:30.309Z,20.65
2018-08-13T01:36:01.877Z,20.62
2018-08-13T01:38:31.984Z,20.63
2018-08-13T01:41:00.868Z,20.47
2018-08-13T01:43:29.505Z,20.43
2018-08-13T01:45:58.944Z,20.35
2018-08-13T01:48:27.618Z,20.39
2018-08-13T01:50:57.186Z,20.39
2018-08-13T01:53:26.403Z,20.33
2018-08-13T01:55:55.219Z,20.41
2018-08-13T01:58:24.814Z,20.38
2018-08-13T02:00:53.443Z,20.24
2018-08-13T02:03:22.276Z,20.24
2018-08-13T02:05:51.710Z,20.21
2018-08-13T02:08:20.588Z,20.15
2018-08-13T02:10:49.982Z,19.99
2018-08-13T02:13:19.322Z,19.99
2018-08-13T02:15:49.360Z,19.89
2018-08-13T02:18:19.807Z,19.88
2018-08-13T02:20:49.838Z,19.83
2018-08-13T02:23:19.200Z,19.92
2018-08-13T02:25:48.997Z,19.95
2018-08-13T02:28:19.590Z,20.00
2018-08-13T02:30:48.936Z,20.07
2018-08-13T02:33:18.842Z,20.01
2018-08-13T02:35:48.219Z,19.99
2018-08-13T02:38:17.345Z,20.03
2018-08-13T02:40:46.145Z,19.98
2018-08-13T02:43:15.579Z,20.03
2018-08-13T02:45:45.145Z,19.95
2018-08-13T02:48:13.902Z,20.06
2018-08-13T02:50:42.649Z,20.08
2018-08-13T02:53:12.047Z,19.98
2018-08-13T02:55:42.078Z,19.89
2018-08-13T02:58:11.085Z,19.80
2018-08-13T03:00:40.633Z,19.84
2018-08-13T03:03:09.362Z,19.79
2018-08-13T03:05:38.058Z,19.70
2018-08-13T03:08:07.105Z,19.68
2018-08-13T03:10:43.279Z,19.79
2018-08-13T03:13:11.900Z,19.74
2018-08-13T03:15:41.741Z,19.56
2018-08-13T03:18:10.642Z,19.47
2018-08-13T03:20:40.219Z,19.37
2018-08-13T03:23:10.552Z,19.33
2018-08-13T03:25:39.602Z,19.27
2018-08-13T03:28:09.688Z,19.26
2018-08-13T03:30:39.049Z,19.26
2018-08-13T03:33:08.399Z,19.26
2018-08-13T03:35:37.732Z,19.31
2018-08-13T03:38:07.113Z,19.35
2018-08-13T03:40:37.419Z,19.40
2018-08-13T03:43:06.319Z,19.43
2018-08-13T03:45:34.985Z,19.39
2018-08-13T03:48:03.833Z,19.34
2018-08-13T03:50:32.596Z,19.32
2018-08-13T03:53:01.216Z,19.27
2018-08-13T03:55:31.498Z,19.16
2018-08-13T03:58:01.545Z,19.08
2018-08-13T04:00:30.916Z,19.03
2018-08-13T04:03:00.371Z,18.93
2018-08-13T04:05:30.279Z,18.93
2018-08-13T04:07:59.077Z,18.86
2018-08-13T04:10:27.793Z,18.83
2018-08-13T04:12:56.837Z,18.77
2018-08-13T04:15:25.924Z,18.83
2018-08-13T04:17:54.552Z,18.80
2018-08-13T04:20:23.253Z,18.74
2018-08-13T04:22:51.897Z,18.76
2018-08-13T04:25:20.511Z,18.79
2018-08-13T04:27:49.237Z,18.80
2018-08-13T04:30:18.658Z,18.72
2018-08-13T04:32:48.070Z,18.89
2018-08-13T04:35:16.704Z,18.99
2018-08-13T04:37:46.408Z,19.02
2018-08-13T04:40:16.495Z,19.06
2018-08-13T04:42:46.439Z,18.97
2018-08-13T04:45:15.881Z,18.95
2018-08-13T04:47:52.198Z,18.82
2018-08-13T04:50:21.820Z,18.94
2018-08-13T04:52:50.760Z,19.01
2018-08-13T04:55:20.349Z,19.04
2018-08-13T04:57:50.847Z,19.04
2018-08-13T05:00:19.502Z,19.16
2018-08-13T05:02:48.112Z,19.23
2018-08-13T05:05:16.824Z,19.30
2018-08-13T05:07:45.616Z,19.28
2018-08-13T05:10:14.292Z,19.32
2018-08-13T05:12:42.897Z,19.34
2018-08-13T05:15:12.146Z,19.42
2018-08-13T05:17:40.798Z,19.51
2018-08-13T05:20:10.347Z,19.56
2018-08-13T05:22:40.337Z,19.60
2018-08-13T05:25:10.972Z,19.74
2018-08-13T05:27:40.381Z,19.84
2018-08-13T05:30:10.539Z,19.91
2018-08-13T05:32:39.212Z,19.92
2018-08-13T05:35:08.709Z,19.97
2018-08-13T05:37:37.768Z,20.10
2018-08-13T05:40:07.924Z,20.19
2018-08-13T05:42:36.725Z,20.25
2018-08-13T05:45:06.468Z,20.38
2018-08-13T05:47:35.596Z,20.46
2018-08-13T05:50:05.089Z,20.50
2018-08-13T05:52:33.821Z,20.64
2018-08-13T05:55:02.528Z,20.83
2018-08-13T05:57:31.186Z,21.19
2018-08-13T05:59:59.910Z,22.42
2018-08-13T06:02:33.278Z,23.05
2018-08-13T06:05:02.003Z,22.81
2018-08-13T06:07:30.724Z,22.53
2018-08-13T06:09:59.543Z,22.71
2018-08-13T06:12:28.158Z,23.07
2018-08-13T06:14:57.615Z,23.70
2018-08-13T06:17:26.880Z,25.45
2018-08-13T06:19:55.563Z,26.97
2018-08-13T06:22:24.789Z,28.31
2018-08-13T06:24:53.981Z,29.48
2018-08-13T06:27:23.362Z,30.71
2018-08-13T06:29:52.050Z,31.34
2018-08-13T06:32:20.684Z,31.91
2018-08-13T06:34:49.946Z,32.47
2018-08-13T06:37:18.655Z,31.82
2018-08-13T06:39:47.687Z,29.21
2018-08-13T06:42:16.358Z,27.57
2018-08-13T06:44:46.457Z,26.73
2018-08-13T06:47:16.005Z,26.14
2018-08-13T06:49:44.682Z,25.75
2018-08-13T06:52:13.406Z,25.35
2018-08-13T06:54:43.028Z,25.27
2018-08-13T06:57:11.698Z,25.26
2018-08-13T06:59:40.347Z,25.10
2018-08-13T07:02:09.345Z,24.88
2018-08-13T07:04:38.030Z,24.72
2018-08-13T07:07:06.874Z,24.50
2018-08-13T07:09:35.605Z,24.41
2018-08-13T07:12:04.447Z,24.25
2018-08-13T07:14:33.069Z,24.31
2018-08-13T07:17:01.753Z,24.28
2018-08-13T07:19:30.436Z,24.31
2018-08-13T07:21:59.154Z,24.24
2018-08-13T07:24:28.513Z,24.32
2018-08-13T07:26:57.230Z,24.33
2018-08-13T07:29:25.950Z,24.38
2018-08-13T07:31:54.604Z,24.39
2018-08-13T07:34:23.277Z,24.51
2018-08-13T07:36:51.940Z,24.51
2018-08-13T07:39:20.844Z,24.54
2018-08-13T07:41:49.583Z,24.59
2018-08-13T07:44:18.885Z,24.64
2018-08-13T07:46:48.262Z,24.78
2018-08-13T07:49:19.393Z,24.95
2018-08-13T07:51:50.077Z,25.06
2018-08-13T07:54:19.193Z,25.29
2018-08-13T07:56:47.888Z,25.43
2018-08-13T07:59:17.419Z,25.41
2018-08-13T08:01:47.301Z,25.39
2018-08-13T08:04:16.057Z,25.35
2018-08-13T08:06:45.423Z,25.21
2018-08-13T08:09:14.517Z,25.26
2018-08-13T08:11:43.187Z,25.17
2018-08-13T08:14:12.488Z,25.27
2018-08-13T08:16:41.351Z,25.14
2018-08-13T08:19:10.982Z,24.91
2018-08-13T08:21:41.252Z,24.96
2018-08-13T08:24:10.101Z,24.96
2018-08-13T08:26:38.866Z,24.93
2018-08-13T08:29:09.714Z,24.85
2018-08-13T08:31:39.154Z,24.73
2018-08-13T08:34:09.215Z,24.78
2018-08-13T08:36:38.389Z,24.86
2018-08-13T08:39:11.169Z,24.76
2018-08-13T08:41:39.981Z,24.87
2018-08-13T08:44:08.921Z,24.99
2018-08-13T08:46:38.442Z,25.02
2018-08-13T08:49:08.500Z,24.80
2018-08-13T08:51:39.784Z,24.60
2018-08-13T08:54:10.261Z,24.56
2018-08-13T08:56:39.190Z,24.48
2018-08-13T08:59:09.228Z,24.72
2018-08-13T09:01:39.006Z,24.85
2018-08-13T09:04:10.210Z,24.92
2018-08-13T09:06:39.016Z,24.94
2018-08-13T09:09:19.090Z,24.88
2018-08-13T09:11:48.042Z,24.76
2018-08-13T09:14:17.090Z,24.65
2018-08-13T09:16:52.793Z,24.69
2018-08-13T09:19:35.361Z,24.73
2018-08-13T09:22:16.419Z,24.93
2018-08-13T09:24:57.934Z,25.11
2018-08-13T09:27:42.204Z,25.12
2018-08-13T09:30:26.100Z,25.08
2018-08-13T09:33:07.177Z,24.33
2018-08-13T09:35:39.903Z,24.77
2018-08-13T09:38:17.513Z,24.87
2018-08-13T09:40:53.496Z,24.72
2018-08-13T09:43:22.381Z,24.56
2018-08-13T09:45:51.170Z,24.66
2018-08-13T09:48:23.602Z,24.68
2018-08-13T09:50:54.529Z,24.86
2018-08-13T09:53:25.253Z,24.89
2018-08-13T09:56:03.887Z,24.90
2018-08-13T09:58:37.292Z,24.96
2018-08-13T10:01:10.662Z,24.89
2018-08-13T10:03:42.076Z,24.74
2018-08-13T10:06:16.234Z,24.74
2018-08-13T10:08:44.939Z,24.81
2018-08-13T10:11:14.780Z,24.86
2018-08-13T10:13:44.818Z,24.83
2018-08-13T10:16:23.559Z,24.99
2018-08-13T10:18:55.728Z,24.98
2018-08-13T10:21:25.625Z,24.64
2018-08-13T10:23:55.487Z,24.92
2018-08-13T10:26:24.550Z,24.97
2018-08-13T10:28:54.998Z,25.08
2018-08-13T10:31:27.859Z,25.02
2018-08-13T10:36:44.305Z,24.92
2018-08-13T10:39:18.010Z,24.82
2018-08-13T10:41:46.752Z,24.88
2018-08-13T10:44:20.002Z,24.60
2018-08-13T10:49:47.858Z,24.74
2018-08-13T10:52:16.958Z,24.68
2018-08-13T10:54:47.191Z,24.63
2018-08-13T10:57:16.370Z,24.56
2018-08-13T10:59:46.286Z,24.47
2018-08-13T11:02:24.254Z,24.37
2018-08-13T11:04:53.821Z,24.34
2018-08-13T11:07:23.194Z,24.27
2018-08-13T11:09:52.703Z,24.27
2018-08-13T11:12:22.409Z,24.45
2018-08-13T11:14:53.654Z,24.25
2018-08-13T11:17:22.804Z,24.28
2018-08-13T11:19:51.981Z,24.28
2018-08-13T11:22:21.602Z,24.27
2018-08-13T11:24:50.773Z,24.27
2018-08-13T11:27:19.815Z,24.35
2018-08-13T11:29:50.225Z,24.43
2018-08-13T11:32:19.008Z,24.44
2018-08-13T11:34:49.340Z,24.44
2018-08-13T11:37:19.863Z,24.54
2018-08-13T11:39:48.609Z,24.70
2018-08-13T11:42:17.305Z,24.63
2018-08-13T11:44:47.631Z,24.94
2018-08-13T11:47:16.853Z,25.07
2018-08-13T11:49:45.899Z,24.93
2018-08-13T11:52:14.910Z,24.82
2018-08-13T11:54:44.420Z,24.87
2018-08-13T11:57:15.218Z,24.83
2018-08-13T11:59:43.909Z,24.70
2018-08-13T12:02:12.674Z,24.66
2018-08-13T12:04:42.161Z,24.75
2018-08-13T12:07:10.881Z,24.69
2018-08-13T12:09:40.034Z,24.68
2018-08-13T12:12:08.843Z,24.64
2018-08-13T12:14:37.912Z,24.41
2018-08-13T12:17:07.353Z,24.54
2018-08-13T12:19:36.290Z,24.51
2018-08-13T12:22:05.129Z,24.45
2018-08-13T12:24:33.945Z,24.39
2018-08-13T12:27:03.131Z,24.54
2018-08-13T12:29:32.910Z,24.53
2018-08-13T12:32:01.746Z,24.61
2018-08-13T12:34:31.063Z,24.42
2018-08-13T12:37:05.287Z,24.24
2018-08-13T12:39:34.325Z,24.37
2018-08-13T12:42:03.175Z,24.32
2018-08-13T12:44:32.212Z,24.31
2018-08-13T12:47:02.250Z,24.37
2018-08-13T12:49:32.302Z,24.36
2018-08-13T12:52:01.658Z,24.33
2018-08-13T12:54:30.535Z,24.15
2018-08-13T12:57:00.002Z,24.24
2018-08-13T12:59:29.015Z,24.16
2018-08-13T13:01:59.232Z,24.20
2018-08-13T13:04:28.461Z,24.33
2018-08-13T13:06:57.680Z,24.55
2018-08-13T13:09:27.583Z,25.41
2018-08-13T13:11:56.356Z,26.34
2018-08-13T13:14:25.419Z,26.91
2018-08-13T13:16:55.077Z,27.41
2018-08-13T13:19:25.031Z,27.79
2018-08-13T13:21:53.924Z,27.83
2018-08-13T13:24:23.296Z,27.90
2018-08-13T13:26:51.989Z,27.43
2018-08-13T13:29:20.824Z,26.87
2018-08-13T13:31:50.109Z,26.53
2018-08-13T13:34:18.826Z,26.58
2018-08-13T13:36:48.198Z,26.72
2018-08-13T13:39:18.074Z,26.74
2018-08-13T13:41:47.138Z,26.82
2018-08-13T13:44:17.041Z,26.82
2018-08-13T13:46:46.393Z,26.33
2018-08-13T13:49:15.202Z,26.28
2018-08-13T13:51:44.728Z,26.60
2018-08-13T13:54:14.229Z,26.71
2018-08-13T13:56:43.167Z,26.76
2018-08-13T13:59:11.840Z,27.23
2018-08-13T14:01:40.484Z,27.19
2018-08-13T14:04:09.279Z,27.51
2018-08-13T14:06:38.576Z,27.32
2018-08-13T14:09:10.098Z,27.15
2018-08-13T14:11:38.966Z,26.87
2018-08-13T14:14:08.443Z,26.62
2018-08-13T14:16:37.187Z,26.45
2018-08-13T14:19:06.727Z,26.50
2018-08-13T14:21:36.299Z,26.72
2018-08-13T14:24:05.540Z,27.01
2018-08-13T14:26:34.278Z,26.83
2018-08-13T14:29:04.448Z,26.70
2018-08-13T14:31:34.843Z,26.79
2018-08-13T14:34:04.236Z,26.83
2018-08-13T14:36:32.964Z,26.79
2018-08-13T14:39:02.222Z,27.52
2018-08-13T14:41:31.577Z,27.85
2018-08-13T14:44:00.673Z,27.75
2018-08-13T14:46:29.803Z,27.81
2018-08-13T14:48:59.360Z,27.62
2018-08-13T14:51:28.314Z,27.41
2018-08-13T14:53:57.530Z,27.25
2018-08-13T14:56:26.823Z,26.94
2018-08-13T14:58:55.577Z,26.91
2018-08-13T15:01:24.290Z,26.90
2018-08-13T15:03:53.112Z,27.09
2018-08-13T15:06:22.375Z,27.24
2018-08-13T15:08:51.083Z,26.93
2018-08-13T15:11:19.937Z,26.78
2018-08-13T15:13:49.428Z,27.06
2018-08-13T15:16:18.763Z,27.45
2018-08-13T15:18:47.887Z,27.46
2018-08-13T15:21:16.688Z,27.37
2018-08-13T15:23:45.540Z,27.65
2018-08-13T15:26:15.584Z,27.55
2018-08-13T15:28:44.458Z,27.58
2018-08-13T15:31:13.142Z,27.53
2018-08-13T15:33:42.952Z,27.43
2018-08-13T15:36:13.375Z,27.58
2018-08-13T15:38:42.947Z,27.66
2018-08-13T15:41:11.632Z,27.54
2018-08-13T15:43:40.767Z,27.50
2018-08-13T15:46:22.245Z,27.49
2018-08-13T15:48:55.580Z,27.01
2018-08-13T15:51:26.557Z,27.08
2018-08-13T15:53:56.679Z,27.24
2018-08-13T15:56:27.931Z,26.84
2018-08-13T15:58:57.526Z,26.71
2018-08-13T16:01:26.400Z,26.98
2018-08-13T16:03:56.439Z,27.15
2018-08-13T16:06:28.256Z,27.21
2018-08-13T16:08:58.527Z,26.77
2018-08-13T16:11:27.377Z,26.46
2018-08-13T16:13:58.969Z,26.36
2018-08-13T16:16:29.769Z,26.06
2018-08-13T16:19:02.079Z,25.97
2018-08-13T16:21:30.923Z,25.60
2018-08-13T16:24:02.266Z,25.30
2018-08-13T16:26:32.985Z,25.18
2018-08-13T16:29:03.711Z,25.24
2018-08-13T16:31:32.600Z,25.09
2018-08-13T16:34:02.124Z,25.14
2018-08-13T16:36:31.751Z,24.50
2018-08-13T16:39:00.490Z,24.44
2018-08-13T16:41:34.418Z,24.15
2018-08-13T16:44:05.507Z,23.58
2018-08-13T16:46:36.317Z,23.51
2018-08-13T16:49:15.275Z,23.40
2018-08-13T16:51:45.296Z,23.46
2018-08-13T16:54:15.401Z,23.16
2018-08-13T16:56:44.734Z,23.22
2018-08-13T16:59:15.851Z,23.48
2018-08-13T17:01:47.540Z,23.43
2018-08-13T17:04:21.796Z,23.22
2018-08-13T17:06:55.455Z,23.45
2018-08-13T17:09:30.248Z,23.53
2018-08-13T17:12:02.576Z,23.68
2018-08-13T17:14:34.173Z,23.82
2018-08-13T17:17:10.775Z,23.89
2018-08-13T17:23:13.253Z,24.20
2018-08-13T17:25:44.666Z,24.16
2018-08-13T17:28:16.157Z,24.26
2018-08-13T17:33:21.623Z,24.05
2018-08-13T17:35:50.370Z,23.82
2018-08-13T17:38:19.112Z,23.87
2018-08-13T17:40:47.900Z,23.77
2018-08-13T17:43:16.868Z,23.79
2018-08-13T17:45:46.270Z,23.75
2018-08-13T17:48:14.975Z,23.55
2018-08-13T17:50:43.716Z,23.56
2018-08-13T17:53:12.352Z,23.41
2018-08-13T17:55:41.237Z,23.26
2018-08-13T17:58:10.363Z,23.24
2018-08-13T18:00:40.996Z,23.09
2018-08-13T18:03:10.306Z,23.02
2018-08-13T18:05:39.262Z,22.86
2018-08-13T18:08:08.318Z,22.81
2018-08-13T18:10:37.871Z,22.83
2018-08-13T18:13:08.661Z,22.60
2018-08-13T18:15:37.477Z,22.59
2018-08-13T18:18:06.423Z,22.56
2018-08-13T18:20:35.377Z,22.59
2018-08-13T18:23:04.775Z,22.59
2018-08-13T18:25:33.554Z,22.66
2018-08-13T18:28:02.327Z,22.63
2018-08-13T18:30:31.141Z,22.36
2018-08-13T18:32:59.869Z,22.24
2018-08-13T18:35:29.030Z,22.25
2018-08-13T18:37:58.101Z,22.29
2018-08-13T18:40:31.089Z,22.31
2018-08-13T18:42:59.879Z,22.27
2018-08-13T18:45:28.859Z,22.17
2018-08-13T18:47:57.999Z,22.12
2018-08-13T18:50:28.955Z,22.10
2018-08-13T18:52:57.697Z,22.10
2018-08-13T18:55:26.818Z,22.15
2018-08-13T18:57:56.064Z,22.02
2018-08-13T19:00:30.368Z,21.84
2018-08-13T19:03:01.526Z,21.92
2018-08-13T19:05:33.127Z,21.95
2018-08-13T19:08:03.840Z,21.93
2018-08-13T19:10:40.007Z,22.00
2018-08-13T19:13:11.436Z,22.05
2018-08-13T19:15:42.997Z,22.12
2018-08-13T19:18:14.257Z,22.11
2018-08-13T19:20:43.208Z,22.21
2018-08-13T19:23:13.390Z,22.36
2018-08-13T19:25:44.008Z,22.47
2018-08-13T19:28:17.501Z,22.49
2018-08-13T19:30:49.478Z,22.49
2018-08-13T19:33:18.901Z,22.46
2018-08-13T19:35:55.084Z,22.48
2018-08-13T19:38:35.622Z,22.48
2018-08-13T19:41:05.940Z,22.49
2018-08-13T19:43:35.880Z,22.53
2018-08-13T19:46:07.732Z,22.47
2018-08-13T19:48:38.171Z,22.47
2018-08-13T19:51:07.270Z,22.37
2018-08-13T19:53:35.966Z,22.40
2018-08-13T19:56:04.850Z,22.33
2018-08-13T19:58:34.086Z,22.32
2018-08-13T20:01:03.491Z,22.38
2018-08-13T20:03:32.489Z,22.36
2018-08-13T20:06:01.325Z,22.40
2018-08-13T20:08:30.683Z,22.39
2018-08-13T20:11:00.333Z,22.40
2018-08-13T20:13:29.071Z,22.45
2018-08-13T20:15:57.740Z,22.50
2018-08-13T20:18:26.517Z,22.48
2018-08-13T20:20:55.201Z,22.39
2018-08-13T20:23:23.874Z,22.44
2018-08-13T20:25:52.602Z,22.45
2018-08-13T20:28:21.369Z,22.47
2018-08-13T20:30:50.115Z,22.36
2018-08-13T20:33:18.948Z,22.40
2018-08-13T20:35:47.738Z,22.37
2018-08-13T20:38:16.523Z,22.34
2018-08-13T20:40:47.160Z,22.26
2018-08-13T20:43:16.777Z,22.15
2018-08-13T20:45:46.298Z,22.10
2018-08-13T20:48:15.032Z,22.04
2018-08-13T20:50:43.721Z,22.07
2018-08-13T20:53:12.527Z,22.11
2018-08-13T20:55:41.345Z,22.12
2018-08-13T20:58:10.030Z,22.15
2018-08-13T21:00:38.983Z,22.14
2018-08-13T21:03:07.664Z,22.07
2018-08-13T21:05:36.353Z,22.03
2018-08-13T21:08:05.972Z,22.02
2018-08-13T21:10:38.853Z,22.01
2018-08-13T21:13:07.906Z,22.02
2018-08-13T21:15:37.258Z,22.00
2018-08-13T21:18:07.397Z,21.99
2018-08-13T21:20:37.833Z,21.90
2018-08-13T21:23:07.030Z,21.76
2018-08-13T21:25:37.117Z,21.47
2018-08-13T21:28:06.394Z,21.48
2018-08-13T21:30:36.202Z,21.37
2018-08-13T21:33:05.108Z,21.38
2018-08-13T21:35:33.830Z,21.42
2018-08-13T21:38:03.278Z,21.33
2018-08-13T21:40:32.065Z,21.27
2018-08-13T21:43:01.731Z,21.38
2018-08-13T21:45:30.935Z,21.45
2018-08-13T21:48:00.769Z,21.57
2018-08-13T21:50:30.099Z,21.59
2018-08-13T21:52:59.840Z,21.56
2018-08-13T21:55:29.424Z,21.47
2018-08-13T21:57:59.015Z,21.58
2018-08-13T22:01:32.892Z,21.57
2018-08-13T22:04:02.441Z,21.29
2018-08-13T22:06:31.760Z,21.47
2018-08-13T22:09:02.380Z,21.56
2018-08-13T22:11:32.038Z,21.48
2018-08-13T22:14:00.980Z,21.49
2018-08-13T22:16:31.201Z,21.47
2018-08-13T22:19:00.874Z,21.51
2018-08-13T22:21:30.395Z,21.58
2018-08-13T22:24:10.430Z,21.51
2018-08-13T22:26:39.609Z,21.57
2018-08-13T22:29:09.000Z,21.58
2018-08-13T22:31:39.005Z,21.60
2018-08-13T22:34:09.853Z,21.47
2018-08-13T22:36:38.465Z,21.03
2018-08-13T22:39:09.276Z,21.08
2018-08-13T22:41:38.193Z,21.15
2018-08-13T22:44:07.095Z,21.19
2018-08-13T22:46:37.188Z,21.25
2018-08-13T22:49:06.015Z,21.30
2018-08-13T22:51:34.768Z,21.19
2018-08-13T22:54:03.984Z,21.26
2018-08-13T22:56:32.665Z,21.21
2018-08-13T22:59:05.576Z,21.04
2018-08-13T23:01:34.724Z,21.06
2018-08-13T23:04:03.882Z,21.11
2018-08-13T23:06:33.263Z,20.89
2018-08-13T23:09:02.212Z,20.97
2018-08-13T23:11:30.809Z,20.92
2018-08-13T23:14:00.167Z,20.96
2018-08-13T23:16:30.241Z,21.03
2018-08-13T23:18:59.787Z,21.02
2018-08-13T23:21:29.123Z,21.11
2018-08-13T23:23:57.821Z,21.16
2018-08-13T23:26:26.583Z,21.13
2018-08-13T23:28:55.282Z,21.13
2018-08-13T23:31:24.660Z,21.23
2018-08-13T23:33:54.713Z,21.28
2018-08-13T23:36:24.876Z,21.32
2018-08-13T23:38:53.653Z,21.28
2018-08-13T23:41:22.914Z,21.30
2018-08-13T23:43:52.328Z,21.24
2018-08-13T23:46:21.115Z,21.22
2018-08-13T23:48:51.538Z,21.20
2018-08-13T23:51:20.258Z,21.18
2018-08-13T23:53:49.724Z,21.12
2018-08-13T23:56:23.774Z,21.07
2018-08-13T23:58:52.678Z,20.73
